X  Close Metar Aviation Weather Data     EHAM Amsterdam Airport Schiphol
Temperature
19°C Temperature
15°C Dewpoint
78% Humidity



Wind
27 KM/H
17 MPH
8 M/S
15 KTS



200°
SSW
Current Conditions

Light Showers, Rain Light Showers, Rain
Pressure 1007.79 (hPa) - 29.76 (inHg)
Visibility 6 (mile) - 9.7 (km)
Airport
Airport-code EHAM

Location: Amsterdam Airport Schiphol
Distance: 26 (km)

Metar:
EHAM 160955Z 20015KT 9999 -SHRA FEW017 SCT021 FEW025CB 19/15 Q1008 TEMPO 7000

Time: 16-07-2024 11:55 CEST